Lithia, Massachusetts
Current Conditions -  °F | °C
As of 2:53 PM on Thursday 18 Dec 2014 (Local Time) from KBAF Reporting Station
Overcast Overcast  
Wind Chill: 31°   Ceiling: 3100
Heat Index: 39°   Visibility: 10mi
Dew Point: 25°   Wind: 13mph
Humidity: 57%   Direction: 290°WNW
Pressure: 29.85"   Gusts: NA
Location:  42.4675°N, 72.8362°W
Report Text: KBAF 181953Z 29011KT 10SM OVC031 04/M04 A2985 RMK AO2 PK WND 29026/1917 SLP113 T00391039
Loading
Personal Weather Stations






























Interactive Weather Map New forecast layout! Learn more

10-Day Weather Forecast

Advertisements
Track Severe Weather on mobile